sensor_id;sensor_type;location;lat;lon;timestamp;P1;durP1;ratioP1;P2;durP2;ratioP2
25349;SDS011;13302;48.796;11.978;2023-01-28T00:01:32;7.10;;;6.60;;
25349;SDS011;13302;48.796;11.978;2023-01-28T00:04:19;7.37;;;6.60;;
25349;SDS011;13302;48.796;11.978;2023-01-28T00:07:06;6.97;;;6.27;;
25349;SDS011;13302;48.796;11.978;2023-01-28T00:09:53;7.07;;;6.40;;
25349;SDS011;13302;48.796;11.978;2023-01-28T00:12:40;6.43;;;5.90;;
25349;SDS011;13302;48.796;11.978;2023-01-28T00:15:27;7.00;;;6.20;;
25349;SDS011;13302;48.796;11.978;2023-01-28T00:18:14;6.23;;;5.63;;
25349;SDS011;13302;48.796;11.978;2023-01-28T00:21:05;7.30;;;6.60;;
25349;SDS011;13302;48.796;11.978;2023-01-28T00:23:57;6.07;;;5.53;;
25349;SDS011;13302;48.796;11.978;2023-01-28T00:26:44;6.57;;;5.97;;
25349;SDS011;13302;48.796;11.978;2023-01-28T00:29:31;6.60;;;6.00;;
25349;SDS011;13302;48.796;11.978;2023-01-28T00:32:19;6.83;;;6.13;;
25349;SDS011;13302;48.796;11.978;2023-01-28T00:35:06;6.30;;;5.80;;
25349;SDS011;13302;48.796;11.978;2023-01-28T00:37:53;6.30;;;5.70;;
25349;SDS011;13302;48.796;11.978;2023-01-28T00:40:40;5.97;;;5.47;;
25349;SDS011;13302;48.796;11.978;2023-01-28T00:43:27;6.30;;;5.70;;
25349;SDS011;13302;48.796;11.978;2023-01-28T00:46:14;5.57;;;5.07;;
25349;SDS011;13302;48.796;11.978;2023-01-28T00:49:02;6.13;;;5.57;;
25349;SDS011;13302;48.796;11.978;2023-01-28T00:51:48;5.73;;;5.23;;
25349;SDS011;13302;48.796;11.978;2023-01-28T00:54:36;5.93;;;5.33;;
25349;SDS011;13302;48.796;11.978;2023-01-28T00:57:23;6.20;;;5.60;;
25349;SDS011;13302;48.796;11.978;2023-01-28T01:00:10;5.93;;;5.43;;
25349;SDS011;13302;48.796;11.978;2023-01-28T01:03:00;6.00;;;5.50;;
25349;SDS011;13302;48.796;11.978;2023-01-28T01:05:47;6.20;;;5.53;;
25349;SDS011;13302;48.796;11.978;2023-01-28T01:08:34;6.10;;;5.60;;
25349;SDS011;13302;48.796;11.978;2023-01-28T01:11:25;6.07;;;5.47;;
25349;SDS011;13302;48.796;11.978;2023-01-28T01:14:12;6.27;;;5.67;;
25349;SDS011;13302;48.796;11.978;2023-01-28T01:16:59;5.67;;;5.17;;
25349;SDS011;13302;48.796;11.978;2023-01-28T01:19:46;5.70;;;5.20;;
25349;SDS011;13302;48.796;11.978;2023-01-28T01:22:34;6.10;;;5.60;;
25349;SDS011;13302;48.796;11.978;2023-01-28T01:25:22;6.23;;;5.73;;
25349;SDS011;13302;48.796;11.978;2023-01-28T01:28:09;5.93;;;5.43;;
25349;SDS011;13302;48.796;11.978;2023-01-28T01:31:03;5.67;;;5.27;;
25349;SDS011;13302;48.796;11.978;2023-01-28T01:33:52;5.83;;;5.20;;
25349;SDS011;13302;48.796;11.978;2023-01-28T01:36:40;5.90;;;5.37;;
25349;SDS011;13302;48.796;11.978;2023-01-28T01:39:29;5.27;;;4.87;;
25349;SDS011;13302;48.796;11.978;2023-01-28T01:42:17;5.13;;;4.73;;
25349;SDS011;13302;48.796;11.978;2023-01-28T01:45:05;5.37;;;4.87;;
25349;SDS011;13302;48.796;11.978;2023-01-28T01:48:14;5.20;;;4.70;;
25349;SDS011;13302;48.796;11.978;2023-01-28T01:51:16;5.60;;;5.10;;
25349;SDS011;13302;48.796;11.978;2023-01-28T01:54:07;5.47;;;5.03;;
25349;SDS011;13302;48.796;11.978;2023-01-28T01:56:54;5.20;;;4.70;;
25349;SDS011;13302;48.796;11.978;2023-01-28T01:59:42;4.90;;;4.50;;
25349;SDS011;13302;48.796;11.978;2023-01-28T02:02:30;5.47;;;5.07;;
25349;SDS011;13302;48.796;11.978;2023-01-28T02:05:22;5.40;;;4.97;;
25349;SDS011;13302;48.796;11.978;2023-01-28T02:08:09;5.50;;;5.00;;
25349;SDS011;13302;48.796;11.978;2023-01-28T02:11:09;5.27;;;4.87;;
25349;SDS011;13302;48.796;11.978;2023-01-28T02:13:59;5.30;;;4.90;;
25349;SDS011;13302;48.796;11.978;2023-01-28T02:16:49;5.27;;;4.83;;
25349;SDS011;13302;48.796;11.978;2023-01-28T02:19:36;5.27;;;4.87;;
25349;SDS011;13302;48.796;11.978;2023-01-28T02:28:44;5.27;;;4.77;;
25349;SDS011;13302;48.796;11.978;2023-01-28T02:32:26;5.13;;;4.73;;
25349;SDS011;13302;48.796;11.978;2023-01-28T02:35:11;5.97;;;5.40;;
25349;SDS011;13302;48.796;11.978;2023-01-28T02:38:24;5.90;;;5.40;;
25349;SDS011;13302;48.796;11.978;2023-01-28T02:41:19;5.87;;;5.37;;
25349;SDS011;13302;48.796;11.978;2023-01-28T02:44:14;5.53;;;5.00;;
25349;SDS011;13302;48.796;11.978;2023-01-28T02:47:01;5.80;;;5.30;;
25349;SDS011;13302;48.796;11.978;2023-01-28T02:50:11;6.17;;;5.63;;
25349;SDS011;13302;48.796;11.978;2023-01-28T02:53:16;6.13;;;5.53;;
25349;SDS011;13302;48.796;11.978;2023-01-28T02:56:33;6.10;;;5.60;;
25349;SDS011;13302;48.796;11.978;2023-01-28T03:00:16;5.43;;;5.03;;
25349;SDS011;13302;48.796;11.978;2023-01-28T03:03:11;5.77;;;5.27;;
25349;SDS011;13302;48.796;11.978;2023-01-28T03:06:22;5.43;;;5.03;;
25349;SDS011;13302;48.796;11.978;2023-01-28T03:09:14;5.70;;;5.20;;
25349;SDS011;13302;48.796;11.978;2023-01-28T03:12:13;6.43;;;5.20;;
25349;SDS011;13302;48.796;11.978;2023-01-28T03:15:33;5.63;;;5.13;;
25349;SDS011;13302;48.796;11.978;2023-01-28T03:18:45;6.40;;;5.80;;
25349;SDS011;13302;48.796;11.978;2023-01-28T03:21:55;6.23;;;5.60;;
25349;SDS011;13302;48.796;11.978;2023-01-28T03:25:02;6.77;;;6.13;;
25349;SDS011;13302;48.796;11.978;2023-01-28T03:28:09;5.83;;;5.33;;
25349;SDS011;13302;48.796;11.978;2023-01-28T03:31:20;6.00;;;5.50;;
25349;SDS011;13302;48.796;11.978;2023-01-28T03:34:30;6.63;;;6.13;;
25349;SDS011;13302;48.796;11.978;2023-01-28T03:37:36;6.30;;;5.80;;
25349;SDS011;13302;48.796;11.978;2023-01-28T03:40:49;5.70;;;5.20;;
25349;SDS011;13302;48.796;11.978;2023-01-28T03:43:43;6.50;;;5.90;;
25349;SDS011;13302;48.796;11.978;2023-01-28T03:46:31;6.43;;;5.90;;
25349;SDS011;13302;48.796;11.978;2023-01-28T03:49:18;6.40;;;5.83;;
25349;SDS011;13302;48.796;11.978;2023-01-28T03:52:05;6.33;;;5.73;;
25349;SDS011;13302;48.796;11.978;2023-01-28T03:54:53;6.93;;;6.33;;
25349;SDS011;13302;48.796;11.978;2023-01-28T03:57:40;6.70;;;6.10;;
25349;SDS011;13302;48.796;11.978;2023-01-28T04:00:28;6.53;;;5.93;;
25349;SDS011;13302;48.796;11.978;2023-01-28T04:03:16;6.60;;;6.00;;
25349;SDS011;13302;48.796;11.978;2023-01-28T04:06:15;6.77;;;6.10;;
25349;SDS011;13302;48.796;11.978;2023-01-28T04:09:14;7.20;;;6.60;;
25349;SDS011;13302;48.796;11.978;2023-01-28T04:12:23;7.00;;;6.40;;
25349;SDS011;13302;48.796;11.978;2023-01-28T04:15:11;6.20;;;5.70;;
25349;SDS011;13302;48.796;11.978;2023-01-28T04:18:04;6.87;;;6.27;;
25349;SDS011;13302;48.796;11.978;2023-01-28T04:20:53;8.00;;;7.20;;
25349;SDS011;13302;48.796;11.978;2023-01-28T04:23:40;7.77;;;7.03;;
25349;SDS011;13302;48.796;11.978;2023-01-28T04:26:29;7.07;;;6.47;;
25349;SDS011;13302;48.796;11.978;2023-01-28T04:29:16;7.23;;;6.37;;
25349;SDS011;13302;48.796;11.978;2023-01-28T04:32:03;7.40;;;6.70;;
25349;SDS011;13302;48.796;11.978;2023-01-28T04:35:07;7.00;;;6.30;;
25349;SDS011;13302;48.796;11.978;2023-01-28T04:38:17;7.40;;;6.70;;
25349;SDS011;13302;48.796;11.978;2023-01-28T04:41:27;7.30;;;6.60;;
25349;SDS011;13302;48.796;11.978;2023-01-28T04:44:19;7.13;;;6.43;;
25349;SDS011;13302;48.796;11.978;2023-01-28T04:47:15;7.30;;;6.67;;
25349;SDS011;13302;48.796;11.978;2023-01-28T04:50:21;7.47;;;6.77;;
25349;SDS011;13302;48.796;11.978;2023-01-28T04:53:46;7.50;;;6.80;;
25349;SDS011;13302;48.796;11.978;2023-01-28T04:56:45;7.27;;;6.67;;
25349;SDS011;13302;48.796;11.978;2023-01-28T04:59:32;6.80;;;6.20;;
25349;SDS011;13302;48.796;11.978;2023-01-28T05:02:20;8.20;;;7.40;;
25349;SDS011;13302;48.796;11.978;2023-01-28T05:05:08;7.13;;;6.43;;
25349;SDS011;13302;48.796;11.978;2023-01-28T05:08:13;7.63;;;6.50;;
25349;SDS011;13302;48.796;11.978;2023-01-28T05:11:01;7.37;;;6.67;;
25349;SDS011;13302;48.796;11.978;2023-01-28T05:13:48;7.03;;;6.43;;
25349;SDS011;13302;48.796;11.978;2023-01-28T05:16:37;6.87;;;6.23;;
25349;SDS011;13302;48.796;11.978;2023-01-28T05:19:25;7.27;;;6.57;;
25349;SDS011;13302;48.796;11.978;2023-01-28T05:22:12;7.30;;;6.20;;
25349;SDS011;13302;48.796;11.978;2023-01-28T05:25:02;6.87;;;6.27;;
25349;SDS011;13302;48.796;11.978;2023-01-28T05:27:50;7.17;;;6.47;;
25349;SDS011;13302;48.796;11.978;2023-01-28T05:30:38;8.00;;;7.30;;
25349;SDS011;13302;48.796;11.978;2023-01-28T05:33:25;7.40;;;6.70;;
25349;SDS011;13302;48.796;11.978;2023-01-28T05:36:12;6.97;;;6.27;;
25349;SDS011;13302;48.796;11.978;2023-01-28T05:39:00;6.87;;;6.27;;
25349;SDS011;13302;48.796;11.978;2023-01-28T05:41:48;6.80;;;6.20;;
25349;SDS011;13302;48.796;11.978;2023-01-28T05:44:34;7.50;;;6.80;;
25349;SDS011;13302;48.796;11.978;2023-01-28T05:47:34;7.93;;;7.13;;
25349;SDS011;13302;48.796;11.978;2023-01-28T05:50:38;7.37;;;6.53;;
25349;SDS011;13302;48.796;11.978;2023-01-28T05:53:36;7.47;;;6.77;;
25349;SDS011;13302;48.796;11.978;2023-01-28T05:56:24;7.10;;;6.40;;
25349;SDS011;13302;48.796;11.978;2023-01-28T05:59:11;6.60;;;6.00;;
25349;SDS011;13302;48.796;11.978;2023-01-28T06:02:01;7.43;;;6.80;;
25349;SDS011;13302;48.796;11.978;2023-01-28T06:04:48;7.20;;;6.50;;
25349;SDS011;13302;48.796;11.978;2023-01-28T06:07:36;8.00;;;6.50;;
25349;SDS011;13302;48.796;11.978;2023-01-28T06:10:24;7.17;;;6.57;;
25349;SDS011;13302;48.796;11.978;2023-01-28T06:13:11;7.10;;;6.50;;
25349;SDS011;13302;48.796;11.978;2023-01-28T06:16:14;8.00;;;7.17;;
25349;SDS011;13302;48.796;11.978;2023-01-28T06:19:18;7.20;;;6.50;;
25349;SDS011;13302;48.796;11.978;2023-01-28T06:22:06;7.37;;;6.57;;
25349;SDS011;13302;48.796;11.978;2023-01-28T06:24:53;7.10;;;6.40;;
25349;SDS011;13302;48.796;11.978;2023-01-28T06:27:40;6.33;;;5.83;;
25349;SDS011;13302;48.796;11.978;2023-01-28T06:30:27;6.80;;;6.20;;
25349;SDS011;13302;48.796;11.978;2023-01-28T06:33:14;7.03;;;6.33;;
25349;SDS011;13302;48.796;11.978;2023-01-28T06:36:02;7.83;;;6.80;;
25349;SDS011;13302;48.796;11.978;2023-01-28T06:38:49;7.57;;;6.87;;
25349;SDS011;13302;48.796;11.978;2023-01-28T06:41:36;7.13;;;6.43;;
25349;SDS011;13302;48.796;11.978;2023-01-28T06:44:23;6.40;;;5.80;;
25349;SDS011;13302;48.796;11.978;2023-01-28T06:47:10;8.47;;;7.20;;
25349;SDS011;13302;48.796;11.978;2023-01-28T06:49:57;7.87;;;7.07;;
25349;SDS011;13302;48.796;11.978;2023-01-28T06:52:44;8.47;;;7.63;;
25349;SDS011;13302;48.796;11.978;2023-01-28T06:55:31;6.97;;;6.27;;
25349;SDS011;13302;48.796;11.978;2023-01-28T06:58:19;7.27;;;6.53;;
25349;SDS011;13302;48.796;11.978;2023-01-28T07:01:06;6.80;;;6.20;;
25349;SDS011;13302;48.796;11.978;2023-01-28T07:03:53;7.00;;;6.33;;
25349;SDS011;13302;48.796;11.978;2023-01-28T07:06:40;7.83;;;7.07;;
25349;SDS011;13302;48.796;11.978;2023-01-28T07:09:27;7.30;;;6.60;;
25349;SDS011;13302;48.796;11.978;2023-01-28T07:12:14;8.10;;;7.40;;
25349;SDS011;13302;48.796;11.978;2023-01-28T07:15:01;7.83;;;7.13;;
25349;SDS011;13302;48.796;11.978;2023-01-28T07:17:48;8.47;;;7.67;;
25349;SDS011;13302;48.796;11.978;2023-01-28T07:20:35;8.17;;;7.47;;
25349;SDS011;13302;48.796;11.978;2023-01-28T07:23:22;7.93;;;7.13;;
25349;SDS011;13302;48.796;11.978;2023-01-28T07:26:09;8.60;;;7.70;;
25349;SDS011;13302;48.796;11.978;2023-01-28T07:28:56;8.40;;;7.23;;
25349;SDS011;13302;48.796;11.978;2023-01-28T07:31:43;7.97;;;7.27;;
25349;SDS011;13302;48.796;11.978;2023-01-28T07:34:30;8.50;;;7.70;;
25349;SDS011;13302;48.796;11.978;2023-01-28T07:37:17;8.90;;;8.00;;
25349;SDS011;13302;48.796;11.978;2023-01-28T07:40:04;8.77;;;7.93;;
25349;SDS011;13302;48.796;11.978;2023-01-28T07:42:51;8.73;;;7.83;;
25349;SDS011;13302;48.796;11.978;2023-01-28T07:45:41;9.00;;;8.10;;
25349;SDS011;13302;48.796;11.978;2023-01-28T07:48:28;9.57;;;8.57;;
25349;SDS011;13302;48.796;11.978;2023-01-28T07:51:15;9.10;;;8.20;;
25349;SDS011;13302;48.796;11.978;2023-01-28T07:54:02;9.63;;;8.27;;
25349;SDS011;13302;48.796;11.978;2023-01-28T07:56:49;8.30;;;7.47;;
25349;SDS011;13302;48.796;11.978;2023-01-28T07:59:36;8.83;;;7.97;;
25349;SDS011;13302;48.796;11.978;2023-01-28T08:02:23;8.53;;;7.73;;
25349;SDS011;13302;48.796;11.978;2023-01-28T08:05:10;9.40;;;7.97;;
25349;SDS011;13302;48.796;11.978;2023-01-28T08:07:57;10.43;;;9.17;;
25349;SDS011;13302;48.796;11.978;2023-01-28T08:10:44;10.40;;;9.33;;
25349;SDS011;13302;48.796;11.978;2023-01-28T08:13:32;9.67;;;8.67;;
25349;SDS011;13302;48.796;11.978;2023-01-28T08:16:18;9.50;;;8.60;;
25349;SDS011;13302;48.796;11.978;2023-01-28T08:19:05;9.47;;;8.60;;
25349;SDS011;13302;48.796;11.978;2023-01-28T08:21:52;8.83;;;7.93;;
25349;SDS011;13302;48.796;11.978;2023-01-28T08:24:39;8.80;;;7.90;;
25349;SDS011;13302;48.796;11.978;2023-01-28T08:27:26;9.07;;;8.17;;
25349;SDS011;13302;48.796;11.978;2023-01-28T08:30:13;9.40;;;8.50;;
25349;SDS011;13302;48.796;11.978;2023-01-28T08:33:01;9.20;;;8.20;;
25349;SDS011;13302;48.796;11.978;2023-01-28T08:35:48;8.67;;;7.87;;
25349;SDS011;13302;48.796;11.978;2023-01-28T08:38:35;18.13;;;16.20;;
25349;SDS011;13302;48.796;11.978;2023-01-28T08:41:22;14.10;;;12.30;;
25349;SDS011;13302;48.796;11.978;2023-01-28T08:44:09;10.87;;;9.77;;
25349;SDS011;13302;48.796;11.978;2023-01-28T08:46:56;9.40;;;8.50;;
25349;SDS011;13302;48.796;11.978;2023-01-28T08:49:43;10.07;;;8.30;;
25349;SDS011;13302;48.796;11.978;2023-01-28T08:52:30;9.27;;;8.37;;
25349;SDS011;13302;48.796;11.978;2023-01-28T08:55:17;9.13;;;8.20;;
25349;SDS011;13302;48.796;11.978;2023-01-28T08:58:05;9.57;;;8.57;;
25349;SDS011;13302;48.796;11.978;2023-01-28T09:00:53;9.13;;;8.23;;
25349;SDS011;13302;48.796;11.978;2023-01-28T09:03:40;8.70;;;7.80;;
25349;SDS011;13302;48.796;11.978;2023-01-28T09:06:27;8.70;;;7.77;;
25349;SDS011;13302;48.796;11.978;2023-01-28T09:09:14;9.70;;;8.57;;
25349;SDS011;13302;48.796;11.978;2023-01-28T09:12:01;9.20;;;8.27;;
25349;SDS011;13302;48.796;11.978;2023-01-28T09:14:48;9.20;;;8.30;;
25349;SDS011;13302;48.796;11.978;2023-01-28T09:17:35;8.40;;;7.60;;
25349;SDS011;13302;48.796;11.978;2023-01-28T09:20:22;8.50;;;7.70;;
25349;SDS011;13302;48.796;11.978;2023-01-28T09:23:09;9.47;;;8.27;;
25349;SDS011;13302;48.796;11.978;2023-01-28T09:25:59;8.97;;;8.10;;
25349;SDS011;13302;48.796;11.978;2023-01-28T09:28:47;9.30;;;8.40;;
25349;SDS011;13302;48.796;11.978;2023-01-28T09:31:34;9.27;;;8.37;;
25349;SDS011;13302;48.796;11.978;2023-01-28T09:34:21;9.40;;;8.50;;
25349;SDS011;13302;48.796;11.978;2023-01-28T09:37:08;8.87;;;7.97;;
25349;SDS011;13302;48.796;11.978;2023-01-28T09:39:55;8.40;;;7.50;;
25349;SDS011;13302;48.796;11.978;2023-01-28T09:42:49;10.07;;;8.90;;
25349;SDS011;13302;48.796;11.978;2023-01-28T09:45:57;9.47;;;8.10;;
25349;SDS011;13302;48.796;11.978;2023-01-28T09:48:49;14.30;;;12.23;;
25349;SDS011;13302;48.796;11.978;2023-01-28T09:51:44;26.00;;;17.13;;
25349;SDS011;13302;48.796;11.978;2023-01-28T09:54:43;22.33;;;15.10;;
25349;SDS011;13302;48.796;11.978;2023-01-28T09:57:39;37.37;;;21.87;;
25349;SDS011;13302;48.796;11.978;2023-01-28T10:00:34;33.43;;;20.73;;
25349;SDS011;13302;48.796;11.978;2023-01-28T10:03:31;22.97;;;16.67;;
25349;SDS011;13302;48.796;11.978;2023-01-28T10:12:52;10.90;;;9.53;;
25349;SDS011;13302;48.796;11.978;2023-01-28T10:22:25;12.07;;;10.90;;
25349;SDS011;13302;48.796;11.978;2023-01-28T10:25:19;12.60;;;10.27;;
25349;SDS011;13302;48.796;11.978;2023-01-28T10:28:10;12.43;;;9.83;;
25349;SDS011;13302;48.796;11.978;2023-01-28T10:31:10;11.57;;;10.47;;
25349;SDS011;13302;48.796;11.978;2023-01-28T10:33:58;12.40;;;10.57;;
25349;SDS011;13302;48.796;11.978;2023-01-28T10:36:46;10.67;;;9.53;;
25349;SDS011;13302;48.796;11.978;2023-01-28T10:39:34;10.83;;;9.63;;
25349;SDS011;13302;48.796;11.978;2023-01-28T10:42:31;13.43;;;11.50;;
25349;SDS011;13302;48.796;11.978;2023-01-28T10:45:31;12.33;;;11.13;;
25349;SDS011;13302;48.796;11.978;2023-01-28T10:51:32;13.03;;;11.63;;
25349;SDS011;13302;48.796;11.978;2023-01-28T10:54:25;13.20;;;11.23;;
25349;SDS011;13302;48.796;11.978;2023-01-28T10:57:15;14.07;;;12.00;;
25349;SDS011;13302;48.796;11.978;2023-01-28T11:00:12;13.17;;;11.13;;
25349;SDS011;13302;48.796;11.978;2023-01-28T11:03:15;16.80;;;13.40;;
25349;SDS011;13302;48.796;11.978;2023-01-28T11:06:04;15.77;;;13.33;;
25349;SDS011;13302;48.796;11.978;2023-01-28T11:08:51;15.70;;;14.00;;
25349;SDS011;13302;48.796;11.978;2023-01-28T11:11:38;14.40;;;12.07;;
25349;SDS011;13302;48.796;11.978;2023-01-28T11:14:26;14.13;;;12.63;;
25349;SDS011;13302;48.796;11.978;2023-01-28T11:17:15;16.73;;;13.67;;
25349;SDS011;13302;48.796;11.978;2023-01-28T11:20:11;16.57;;;13.90;;
25349;SDS011;13302;48.796;11.978;2023-01-28T11:23:05;15.30;;;13.17;;
25349;SDS011;13302;48.796;11.978;2023-01-28T11:26:03;16.60;;;13.13;;
25349;SDS011;13302;48.796;11.978;2023-01-28T11:28:52;12.87;;;11.43;;
25349;SDS011;13302;48.796;11.978;2023-01-28T11:31:41;12.43;;;11.13;;
25349;SDS011;13302;48.796;11.978;2023-01-28T11:34:32;11.17;;;10.03;;
25349;SDS011;13302;48.796;11.978;2023-01-28T11:37:20;11.30;;;10.00;;
25349;SDS011;13302;48.796;11.978;2023-01-28T11:40:15;11.20;;;10.10;;
25349;SDS011;13302;48.796;11.978;2023-01-28T11:43:07;11.27;;;9.97;;
25349;SDS011;13302;48.796;11.978;2023-01-28T11:46:06;11.37;;;9.83;;
25349;SDS011;13302;48.796;11.978;2023-01-28T11:49:05;11.73;;;10.53;;
25349;SDS011;13302;48.796;11.978;2023-01-28T11:52:11;11.20;;;10.00;;
25349;SDS011;13302;48.796;11.978;2023-01-28T11:55:36;11.20;;;10.00;;
25349;SDS011;13302;48.796;11.978;2023-01-28T12:05:07;12.03;;;10.73;;
25349;SDS011;13302;48.796;11.978;2023-01-28T12:14:37;11.07;;;9.90;;
25349;SDS011;13302;48.796;11.978;2023-01-28T12:17:41;11.10;;;9.60;;
25349;SDS011;13302;48.796;11.978;2023-01-28T12:20:46;11.07;;;9.97;;
25349;SDS011;13302;48.796;11.978;2023-01-28T12:24:09;10.67;;;9.57;;
25349;SDS011;13302;48.796;11.978;2023-01-28T12:27:23;11.67;;;10.30;;
25349;SDS011;13302;48.796;11.978;2023-01-28T12:33:50;10.27;;;9.23;;
25349;SDS011;13302;48.796;11.978;2023-01-28T12:36:57;11.17;;;10.07;;
25349;SDS011;13302;48.796;11.978;2023-01-28T12:43:02;11.23;;;9.13;;
25349;SDS011;13302;48.796;11.978;2023-01-28T12:46:02;9.80;;;8.83;;
25349;SDS011;13302;48.796;11.978;2023-01-28T12:49:03;9.33;;;8.43;;
25349;SDS011;13302;48.796;11.978;2023-01-28T12:52:08;9.67;;;8.47;;
25349;SDS011;13302;48.796;11.978;2023-01-28T12:55:03;10.47;;;9.37;;
25349;SDS011;13302;48.796;11.978;2023-01-28T12:58:01;9.80;;;8.90;;
25349;SDS011;13302;48.796;11.978;2023-01-28T13:00:50;11.00;;;9.90;;
25349;SDS011;13302;48.796;11.978;2023-01-28T13:06:43;10.20;;;9.20;;
25349;SDS011;13302;48.796;11.978;2023-01-28T13:09:36;10.63;;;9.03;;
25349;SDS011;13302;48.796;11.978;2023-01-28T13:12:29;10.17;;;9.13;;
25349;SDS011;13302;48.796;11.978;2023-01-28T13:15:18;10.23;;;9.07;;
25349;SDS011;13302;48.796;11.978;2023-01-28T13:18:06;10.03;;;8.80;;
25349;SDS011;13302;48.796;11.978;2023-01-28T13:20:53;9.70;;;8.70;;
25349;SDS011;13302;48.796;11.978;2023-01-28T13:23:43;9.60;;;8.70;;
25349;SDS011;13302;48.796;11.978;2023-01-28T13:26:36;10.07;;;8.70;;
25349;SDS011;13302;48.796;11.978;2023-01-28T13:29:30;8.40;;;7.60;;
25349;SDS011;13302;48.796;11.978;2023-01-28T13:32:33;9.23;;;8.33;;
25349;SDS011;13302;48.796;11.978;2023-01-28T13:35:29;10.47;;;9.27;;
25349;SDS011;13302;48.796;11.978;2023-01-28T13:38:21;9.67;;;8.67;;
25349;SDS011;13302;48.796;11.978;2023-01-28T13:41:10;10.40;;;9.40;;
25349;SDS011;13302;48.796;11.978;2023-01-28T13:43:57;9.13;;;8.23;;
25349;SDS011;13302;48.796;11.978;2023-01-28T13:46:44;8.37;;;7.57;;
25349;SDS011;13302;48.796;11.978;2023-01-28T13:49:32;8.90;;;8.00;;
25349;SDS011;13302;48.796;11.978;2023-01-28T13:56:06;10.03;;;9.00;;
25349;SDS011;13302;48.796;11.978;2023-01-28T14:02:09;9.30;;;8.50;;
25349;SDS011;13302;48.796;11.978;2023-01-28T14:08:24;9.90;;;8.70;;
25349;SDS011;13302;48.796;11.978;2023-01-28T14:15:08;10.30;;;8.30;;
25349;SDS011;13302;48.796;11.978;2023-01-28T14:21:20;9.00;;;8.00;;
25349;SDS011;13302;48.796;11.978;2023-01-28T14:24:11;8.67;;;7.80;;
25349;SDS011;13302;48.796;11.978;2023-01-28T14:27:21;7.90;;;7.10;;
25349;SDS011;13302;48.796;11.978;2023-01-28T14:30:21;8.33;;;7.53;;
25349;SDS011;13302;48.796;11.978;2023-01-28T14:33:18;7.90;;;7.10;;
25349;SDS011;13302;48.796;11.978;2023-01-28T14:36:11;7.83;;;7.13;;
25349;SDS011;13302;48.796;11.978;2023-01-28T14:38:58;9.17;;;8.27;;
25349;SDS011;13302;48.796;11.978;2023-01-28T14:41:46;8.67;;;7.83;;
25349;SDS011;13302;48.796;11.978;2023-01-28T14:44:37;9.57;;;7.93;;
25349;SDS011;13302;48.796;11.978;2023-01-28T14:59:47;8.77;;;7.87;;
25349;SDS011;13302;48.796;11.978;2023-01-28T15:02:47;9.07;;;8.17;;
25349;SDS011;13302;48.796;11.978;2023-01-28T15:05:34;9.87;;;8.80;;
25349;SDS011;13302;48.796;11.978;2023-01-28T15:08:21;8.47;;;7.67;;
25349;SDS011;13302;48.796;11.978;2023-01-28T15:11:12;8.60;;;7.80;;
25349;SDS011;13302;48.796;11.978;2023-01-28T15:14:03;7.63;;;6.87;;
25349;SDS011;13302;48.796;11.978;2023-01-28T15:16:59;8.83;;;7.13;;
25349;SDS011;13302;48.796;11.978;2023-01-28T15:19:47;8.57;;;7.40;;
25349;SDS011;13302;48.796;11.978;2023-01-28T15:22:34;10.13;;;8.60;;
25349;SDS011;13302;48.796;11.978;2023-01-28T15:25:22;12.00;;;9.60;;
25349;SDS011;13302;48.796;11.978;2023-01-28T15:28:14;7.87;;;7.07;;
25349;SDS011;13302;48.796;11.978;2023-01-28T15:31:18;7.07;;;6.37;;
25349;SDS011;13302;48.796;11.978;2023-01-28T15:34:17;6.47;;;5.97;;
25349;SDS011;13302;48.796;11.978;2023-01-28T15:37:08;5.80;;;5.30;;
25349;SDS011;13302;48.796;11.978;2023-01-28T15:40:00;5.67;;;5.17;;
25349;SDS011;13302;48.796;11.978;2023-01-28T15:42:48;6.60;;;6.00;;
25349;SDS011;13302;48.796;11.978;2023-01-28T15:45:36;6.53;;;5.90;;
25349;SDS011;13302;48.796;11.978;2023-01-28T15:48:27;5.63;;;5.13;;
25349;SDS011;13302;48.796;11.978;2023-01-28T15:51:19;6.40;;;5.50;;
25349;SDS011;13302;48.796;11.978;2023-01-28T15:54:08;4.87;;;4.57;;
25349;SDS011;13302;48.796;11.978;2023-01-28T15:56:57;5.20;;;4.80;;
25349;SDS011;13302;48.796;11.978;2023-01-28T16:00:10;5.27;;;4.83;;
25349;SDS011;13302;48.796;11.978;2023-01-28T16:03:05;5.17;;;4.77;;
25349;SDS011;13302;48.796;11.978;2023-01-28T16:06:38;5.87;;;5.30;;
25349;SDS011;13302;48.796;11.978;2023-01-28T16:09:17;5.63;;;5.13;;
25349;SDS011;13302;48.796;11.978;2023-01-28T16:12:10;5.23;;;4.73;;
25349;SDS011;13302;48.796;11.978;2023-01-28T16:15:00;6.13;;;5.63;;
25349;SDS011;13302;48.796;11.978;2023-01-28T16:17:49;5.57;;;5.07;;
25349;SDS011;13302;48.796;11.978;2023-01-28T16:20:37;5.33;;;4.83;;
25349;SDS011;13302;48.796;11.978;2023-01-28T16:23:25;5.20;;;4.80;;
25349;SDS011;13302;48.796;11.978;2023-01-28T16:26:21;6.93;;;6.33;;
25349;SDS011;13302;48.796;11.978;2023-01-28T16:29:11;6.90;;;6.33;;
25349;SDS011;13302;48.796;11.978;2023-01-28T16:32:00;5.60;;;5.10;;
25349;SDS011;13302;48.796;11.978;2023-01-28T16:34:49;4.90;;;4.50;;
25349;SDS011;13302;48.796;11.978;2023-01-28T16:37:36;5.43;;;5.03;;
25349;SDS011;13302;48.796;11.978;2023-01-28T16:40:27;5.00;;;4.60;;
25349;SDS011;13302;48.796;11.978;2023-01-28T16:43:15;5.17;;;4.67;;
25349;SDS011;13302;48.796;11.978;2023-01-28T16:46:02;5.23;;;4.80;;
25349;SDS011;13302;48.796;11.978;2023-01-28T16:48:54;5.83;;;5.27;;
25349;SDS011;13302;48.796;11.978;2023-01-28T16:51:41;5.80;;;5.40;;
25349;SDS011;13302;48.796;11.978;2023-01-28T16:54:29;5.90;;;4.87;;
25349;SDS011;13302;48.796;11.978;2023-01-28T16:57:18;8.10;;;6.93;;
25349;SDS011;13302;48.796;11.978;2023-01-28T17:00:19;15.93;;;11.80;;
25349;SDS011;13302;48.796;11.978;2023-01-28T17:03:08;21.73;;;14.90;;
25349;SDS011;13302;48.796;11.978;2023-01-28T17:05:58;20.30;;;13.47;;
25349;SDS011;13302;48.796;11.978;2023-01-28T17:08:45;11.93;;;8.87;;
25349;SDS011;13302;48.796;11.978;2023-01-28T17:11:32;6.73;;;5.77;;
25349;SDS011;13302;48.796;11.978;2023-01-28T17:14:19;5.63;;;5.07;;
25349;SDS011;13302;48.796;11.978;2023-01-28T17:17:06;5.00;;;4.50;;
25349;SDS011;13302;48.796;11.978;2023-01-28T17:19:53;5.43;;;4.97;;
25349;SDS011;13302;48.796;11.978;2023-01-28T17:22:41;9.30;;;8.30;;
25349;SDS011;13302;48.796;11.978;2023-01-28T17:25:28;8.20;;;7.37;;
25349;SDS011;13302;48.796;11.978;2023-01-28T17:28:15;6.40;;;5.90;;
25349;SDS011;13302;48.796;11.978;2023-01-28T17:31:06;4.90;;;4.50;;
25349;SDS011;13302;48.796;11.978;2023-01-28T17:33:58;4.30;;;3.90;;
25349;SDS011;13302;48.796;11.978;2023-01-28T17:36:45;4.17;;;3.87;;
25349;SDS011;13302;48.796;11.978;2023-01-28T17:39:32;3.97;;;3.60;;
25349;SDS011;13302;48.796;11.978;2023-01-28T17:42:19;3.80;;;3.50;;
25349;SDS011;13302;48.796;11.978;2023-01-28T17:45:06;4.27;;;3.87;;
25349;SDS011;13302;48.796;11.978;2023-01-28T17:47:53;3.77;;;3.47;;
25349;SDS011;13302;48.796;11.978;2023-01-28T17:50:40;3.37;;;3.17;;
25349;SDS011;13302;48.796;11.978;2023-01-28T17:53:27;3.93;;;3.73;;
25349;SDS011;13302;48.796;11.978;2023-01-28T17:56:18;3.57;;;3.30;;
25349;SDS011;13302;48.796;11.978;2023-01-28T17:59:07;3.67;;;3.47;;
25349;SDS011;13302;48.796;11.978;2023-01-28T18:01:55;3.40;;;3.20;;
25349;SDS011;13302;48.796;11.978;2023-01-28T18:04:43;3.77;;;3.50;;
25349;SDS011;13302;48.796;11.978;2023-01-28T18:07:30;3.13;;;2.93;;
25349;SDS011;13302;48.796;11.978;2023-01-28T18:10:17;3.83;;;3.57;;
25349;SDS011;13302;48.796;11.978;2023-01-28T18:13:04;4.10;;;3.80;;